sensor_id;sensor_type;location;lat;lon;timestamp;P1;durP1;ratioP1;P2;durP2;ratioP2
40314;SDS011;26021;45.640;11.302;2023-04-07T00:00:57;24.95;;;16.63;;
40314;SDS011;26021;45.640;11.302;2023-04-07T00:03:23;21.13;;;16.90;;
40314;SDS011;26021;45.640;11.302;2023-04-07T00:05:48;23.92;;;15.77;;
40314;SDS011;26021;45.640;11.302;2023-04-07T00:08:14;21.95;;;15.70;;
40314;SDS011;26021;45.640;11.302;2023-04-07T00:10:40;20.52;;;15.48;;
40314;SDS011;26021;45.640;11.302;2023-04-07T00:13:05;22.70;;;16.00;;
40314;SDS011;26021;45.640;11.302;2023-04-07T00:15:31;24.15;;;16.08;;
40314;SDS011;26021;45.640;11.302;2023-04-07T00:17:56;18.70;;;14.93;;
40314;SDS011;26021;45.640;11.302;2023-04-07T00:20:22;20.45;;;15.13;;
40314;SDS011;26021;45.640;11.302;2023-04-07T00:22:47;21.25;;;16.25;;
40314;SDS011;26021;45.640;11.302;2023-04-07T00:25:13;19.77;;;16.33;;
40314;SDS011;26021;45.640;11.302;2023-04-07T00:27:38;23.08;;;16.00;;
40314;SDS011;26021;45.640;11.302;2023-04-07T00:30:04;19.92;;;15.80;;
40314;SDS011;26021;45.640;11.302;2023-04-07T00:32:30;19.15;;;15.85;;
40314;SDS011;26021;45.640;11.302;2023-04-07T00:34:56;25.58;;;17.50;;
40314;SDS011;26021;45.640;11.302;2023-04-07T00:37:21;21.73;;;16.95;;
40314;SDS011;26021;45.640;11.302;2023-04-07T00:39:47;23.60;;;17.13;;
40314;SDS011;26021;45.640;11.302;2023-04-07T00:42:12;20.38;;;16.77;;
40314;SDS011;26021;45.640;11.302;2023-04-07T00:44:37;20.17;;;15.52;;
40314;SDS011;26021;45.640;11.302;2023-04-07T00:47:03;23.88;;;17.08;;
40314;SDS011;26021;45.640;11.302;2023-04-07T00:49:28;19.55;;;15.75;;
40314;SDS011;26021;45.640;11.302;2023-04-07T00:51:56;22.70;;;16.58;;
40314;SDS011;26021;45.640;11.302;2023-04-07T00:54:22;21.75;;;16.65;;
40314;SDS011;26021;45.640;11.302;2023-04-07T00:56:48;21.73;;;16.00;;
40314;SDS011;26021;45.640;11.302;2023-04-07T00:59:13;23.88;;;16.85;;
40314;SDS011;26021;45.640;11.302;2023-04-07T01:04:24;22.73;;;16.85;;
40314;SDS011;26021;45.640;11.302;2023-04-07T01:06:51;21.45;;;15.68;;
40314;SDS011;26021;45.640;11.302;2023-04-07T01:09:24;21.00;;;15.55;;
40314;SDS011;26021;45.640;11.302;2023-04-07T01:14:51;19.15;;;15.20;;
40314;SDS011;26021;45.640;11.302;2023-04-07T01:17:20;23.42;;;17.13;;
40314;SDS011;26021;45.640;11.302;2023-04-07T01:28:33;20.42;;;15.65;;
40314;SDS011;26021;45.640;11.302;2023-04-07T01:31:09;20.05;;;16.15;;
40314;SDS011;26021;45.640;11.302;2023-04-07T01:33:37;22.65;;;15.70;;
40314;SDS011;26021;45.640;11.302;2023-04-07T01:36:07;18.98;;;14.88;;
40314;SDS011;26021;45.640;11.302;2023-04-07T01:38:33;21.83;;;16.13;;
40314;SDS011;26021;45.640;11.302;2023-04-07T01:41:00;22.20;;;16.73;;
40314;SDS011;26021;45.640;11.302;2023-04-07T01:43:27;19.70;;;15.32;;
40314;SDS011;26021;45.640;11.302;2023-04-07T01:45:54;21.30;;;16.30;;
40314;SDS011;26021;45.640;11.302;2023-04-07T01:48:21;22.77;;;15.75;;
40314;SDS011;26021;45.640;11.302;2023-04-07T01:50:48;22.92;;;16.80;;
40314;SDS011;26021;45.640;11.302;2023-04-07T01:53:14;27.60;;;18.25;;
40314;SDS011;26021;45.640;11.302;2023-04-07T01:55:43;22.10;;;17.05;;
40314;SDS011;26021;45.640;11.302;2023-04-07T01:58:09;21.20;;;16.45;;
40314;SDS011;26021;45.640;11.302;2023-04-07T02:00:35;22.65;;;15.93;;
40314;SDS011;26021;45.640;11.302;2023-04-07T02:03:04;20.77;;;15.25;;
40314;SDS011;26021;45.640;11.302;2023-04-07T02:05:35;20.73;;;15.38;;
40314;SDS011;26021;45.640;11.302;2023-04-07T02:08:04;23.25;;;15.57;;
40314;SDS011;26021;45.640;11.302;2023-04-07T02:10:33;21.15;;;15.50;;
40314;SDS011;26021;45.640;11.302;2023-04-07T02:13:02;19.98;;;15.93;;
40314;SDS011;26021;45.640;11.302;2023-04-07T02:15:29;21.38;;;16.13;;
40314;SDS011;26021;45.640;11.302;2023-04-07T02:17:58;20.45;;;16.05;;
40314;SDS011;26021;45.640;11.302;2023-04-07T02:20:25;20.00;;;15.20;;
40314;SDS011;26021;45.640;11.302;2023-04-07T02:22:52;19.23;;;15.40;;
40314;SDS011;26021;45.640;11.302;2023-04-07T02:27:49;18.98;;;15.57;;
40314;SDS011;26021;45.640;11.302;2023-04-07T02:30:15;20.48;;;16.45;;
40314;SDS011;26021;45.640;11.302;2023-04-07T02:32:40;22.02;;;15.82;;
40314;SDS011;26021;45.640;11.302;2023-04-07T02:35:06;20.27;;;15.75;;
40314;SDS011;26021;45.640;11.302;2023-04-07T02:37:32;24.63;;;15.98;;
40314;SDS011;26021;45.640;11.302;2023-04-07T02:39:57;21.55;;;16.63;;
40314;SDS011;26021;45.640;11.302;2023-04-07T02:42:23;20.17;;;15.35;;
40314;SDS011;26021;45.640;11.302;2023-04-07T02:44:49;19.50;;;15.82;;
40314;SDS011;26021;45.640;11.302;2023-04-07T02:47:14;20.25;;;15.10;;
40314;SDS011;26021;45.640;11.302;2023-04-07T02:49:40;22.13;;;16.85;;
40314;SDS011;26021;45.640;11.302;2023-04-07T02:52:05;23.88;;;16.38;;
40314;SDS011;26021;45.640;11.302;2023-04-07T02:54:31;20.27;;;16.15;;
40314;SDS011;26021;45.640;11.302;2023-04-07T02:56:56;21.00;;;15.90;;
40314;SDS011;26021;45.640;11.302;2023-04-07T02:59:22;22.42;;;16.65;;
40314;SDS011;26021;45.640;11.302;2023-04-07T03:01:47;20.25;;;14.50;;
40314;SDS011;26021;45.640;11.302;2023-04-07T03:04:13;20.98;;;16.30;;
40314;SDS011;26021;45.640;11.302;2023-04-07T03:06:38;22.30;;;16.23;;
40314;SDS011;26021;45.640;11.302;2023-04-07T03:09:05;23.48;;;16.98;;
40314;SDS011;26021;45.640;11.302;2023-04-07T03:11:31;19.00;;;15.85;;
40314;SDS011;26021;45.640;11.302;2023-04-07T03:13:56;22.63;;;16.27;;
40314;SDS011;26021;45.640;11.302;2023-04-07T03:16:22;19.13;;;15.60;;
40314;SDS011;26021;45.640;11.302;2023-04-07T03:18:47;17.27;;;14.57;;
40314;SDS011;26021;45.640;11.302;2023-04-07T03:21:12;22.23;;;16.33;;
40314;SDS011;26021;45.640;11.302;2023-04-07T03:23:38;25.42;;;17.73;;
40314;SDS011;26021;45.640;11.302;2023-04-07T03:26:03;25.23;;;17.92;;
40314;SDS011;26021;45.640;11.302;2023-04-07T03:28:29;22.27;;;17.35;;
40314;SDS011;26021;45.640;11.302;2023-04-07T03:30:54;24.92;;;17.95;;
40314;SDS011;26021;45.640;11.302;2023-04-07T03:33:20;22.00;;;16.65;;
40314;SDS011;26021;45.640;11.302;2023-04-07T03:35:45;23.52;;;17.23;;
40314;SDS011;26021;45.640;11.302;2023-04-07T03:38:11;20.65;;;16.65;;
40314;SDS011;26021;45.640;11.302;2023-04-07T03:40:37;20.85;;;16.48;;
40314;SDS011;26021;45.640;11.302;2023-04-07T03:43:02;20.80;;;16.25;;
40314;SDS011;26021;45.640;11.302;2023-04-07T03:45:27;21.75;;;17.17;;
40314;SDS011;26021;45.640;11.302;2023-04-07T03:47:53;25.00;;;16.75;;
40314;SDS011;26021;45.640;11.302;2023-04-07T03:50:18;21.70;;;17.70;;
40314;SDS011;26021;45.640;11.302;2023-04-07T03:52:44;25.02;;;17.05;;
40314;SDS011;26021;45.640;11.302;2023-04-07T03:55:10;24.48;;;17.42;;
40314;SDS011;26021;45.640;11.302;2023-04-07T03:57:35;20.95;;;17.25;;
40314;SDS011;26021;45.640;11.302;2023-04-07T04:00:01;21.60;;;15.98;;
40314;SDS011;26021;45.640;11.302;2023-04-07T04:02:26;22.95;;;16.63;;
40314;SDS011;26021;45.640;11.302;2023-04-07T04:04:52;21.50;;;16.75;;
40314;SDS011;26021;45.640;11.302;2023-04-07T04:07:17;23.98;;;17.70;;
40314;SDS011;26021;45.640;11.302;2023-04-07T04:09:43;23.60;;;16.55;;
40314;SDS011;26021;45.640;11.302;2023-04-07T04:12:08;23.60;;;16.55;;
40314;SDS011;26021;45.640;11.302;2023-04-07T04:14:34;21.90;;;16.45;;
40314;SDS011;26021;45.640;11.302;2023-04-07T04:16:59;20.88;;;17.13;;
40314;SDS011;26021;45.640;11.302;2023-04-07T04:19:25;20.77;;;16.90;;
40314;SDS011;26021;45.640;11.302;2023-04-07T04:21:50;21.10;;;16.90;;
40314;SDS011;26021;45.640;11.302;2023-04-07T04:24:16;25.88;;;18.67;;
40314;SDS011;26021;45.640;11.302;2023-04-07T04:26:41;24.60;;;17.83;;
40314;SDS011;26021;45.640;11.302;2023-04-07T04:29:06;22.83;;;17.63;;
40314;SDS011;26021;45.640;11.302;2023-04-07T04:31:32;22.95;;;17.08;;
40314;SDS011;26021;45.640;11.302;2023-04-07T04:33:57;24.83;;;18.55;;
40314;SDS011;26021;45.640;11.302;2023-04-07T04:36:23;30.00;;;19.17;;
40314;SDS011;26021;45.640;11.302;2023-04-07T04:38:48;27.23;;;19.90;;
40314;SDS011;26021;45.640;11.302;2023-04-07T04:41:14;31.77;;;20.45;;
40314;SDS011;26021;45.640;11.302;2023-04-07T04:43:39;29.33;;;18.70;;
40314;SDS011;26021;45.640;11.302;2023-04-07T04:46:05;28.95;;;18.17;;
40314;SDS011;26021;45.640;11.302;2023-04-07T04:48:30;24.35;;;17.85;;
40314;SDS011;26021;45.640;11.302;2023-04-07T04:50:56;23.63;;;17.55;;
40314;SDS011;26021;45.640;11.302;2023-04-07T04:53:21;22.90;;;16.98;;
40314;SDS011;26021;45.640;11.302;2023-04-07T04:55:47;29.27;;;19.42;;
40314;SDS011;26021;45.640;11.302;2023-04-07T04:58:16;25.63;;;18.27;;
40314;SDS011;26021;45.640;11.302;2023-04-07T05:00:42;26.67;;;18.98;;
40314;SDS011;26021;45.640;11.302;2023-04-07T05:03:07;25.63;;;18.75;;
40314;SDS011;26021;45.640;11.302;2023-04-07T05:05:33;23.10;;;18.25;;
40314;SDS011;26021;45.640;11.302;2023-04-07T05:07:58;23.88;;;17.63;;
40314;SDS011;26021;45.640;11.302;2023-04-07T05:10:24;23.50;;;18.10;;
40314;SDS011;26021;45.640;11.302;2023-04-07T05:12:49;23.08;;;17.10;;
40314;SDS011;26021;45.640;11.302;2023-04-07T05:15:15;28.20;;;18.33;;
40314;SDS011;26021;45.640;11.302;2023-04-07T05:17:40;28.55;;;18.00;;
40314;SDS011;26021;45.640;11.302;2023-04-07T05:20:07;27.52;;;17.77;;
40314;SDS011;26021;45.640;11.302;2023-04-07T05:22:34;26.77;;;17.65;;
40314;SDS011;26021;45.640;11.302;2023-04-07T05:25:00;26.05;;;16.88;;
40314;SDS011;26021;45.640;11.302;2023-04-07T05:27:26;22.13;;;16.35;;
40314;SDS011;26021;45.640;11.302;2023-04-07T05:29:51;23.73;;;16.55;;
40314;SDS011;26021;45.640;11.302;2023-04-07T05:32:17;25.92;;;18.73;;
40314;SDS011;26021;45.640;11.302;2023-04-07T05:34:43;23.10;;;18.38;;
40314;SDS011;26021;45.640;11.302;2023-04-07T05:37:08;25.10;;;18.85;;
40314;SDS011;26021;45.640;11.302;2023-04-07T05:39:34;25.15;;;18.63;;
40314;SDS011;26021;45.640;11.302;2023-04-07T05:42:00;29.55;;;19.65;;
40314;SDS011;26021;45.640;11.302;2023-04-07T05:44:26;24.20;;;19.30;;
40314;SDS011;26021;45.640;11.302;2023-04-07T05:46:52;25.05;;;18.17;;
40314;SDS011;26021;45.640;11.302;2023-04-07T05:49:17;24.77;;;18.38;;
40314;SDS011;26021;45.640;11.302;2023-04-07T05:51:43;24.98;;;19.35;;
40314;SDS011;26021;45.640;11.302;2023-04-07T05:54:08;24.88;;;17.70;;
40314;SDS011;26021;45.640;11.302;2023-04-07T05:56:34;28.60;;;18.92;;
40314;SDS011;26021;45.640;11.302;2023-04-07T05:59:00;24.70;;;18.77;;
40314;SDS011;26021;45.640;11.302;2023-04-07T06:01:26;28.50;;;19.25;;
40314;SDS011;26021;45.640;11.302;2023-04-07T06:03:51;21.13;;;16.40;;
40314;SDS011;26021;45.640;11.302;2023-04-07T06:06:17;20.95;;;16.75;;
40314;SDS011;26021;45.640;11.302;2023-04-07T06:08:42;29.25;;;18.85;;
40314;SDS011;26021;45.640;11.302;2023-04-07T06:11:07;28.52;;;18.08;;
40314;SDS011;26021;45.640;11.302;2023-04-07T06:13:33;24.92;;;18.45;;
40314;SDS011;26021;45.640;11.302;2023-04-07T06:15:58;25.70;;;18.42;;
40314;SDS011;26021;45.640;11.302;2023-04-07T06:18:24;25.48;;;18.20;;
40314;SDS011;26021;45.640;11.302;2023-04-07T06:20:49;27.08;;;17.98;;
40314;SDS011;26021;45.640;11.302;2023-04-07T06:23:14;41.33;;;32.33;;
40314;SDS011;26021;45.640;11.302;2023-04-07T06:25:40;34.70;;;26.52;;
40314;SDS011;26021;45.640;11.302;2023-04-07T06:28:06;25.23;;;17.83;;
40314;SDS011;26021;45.640;11.302;2023-04-07T06:30:31;21.45;;;18.25;;
40314;SDS011;26021;45.640;11.302;2023-04-07T06:32:56;21.38;;;17.40;;
40314;SDS011;26021;45.640;11.302;2023-04-07T06:35:22;22.23;;;17.23;;
40314;SDS011;26021;45.640;11.302;2023-04-07T06:37:50;26.80;;;18.33;;
40314;SDS011;26021;45.640;11.302;2023-04-07T06:40:16;26.17;;;17.67;;
40314;SDS011;26021;45.640;11.302;2023-04-07T06:42:41;33.65;;;19.20;;
40314;SDS011;26021;45.640;11.302;2023-04-07T06:45:07;25.15;;;17.42;;
40314;SDS011;26021;45.640;11.302;2023-04-07T06:47:33;26.23;;;17.35;;
40314;SDS011;26021;45.640;11.302;2023-04-07T06:49:58;25.48;;;17.98;;
40314;SDS011;26021;45.640;11.302;2023-04-07T06:52:24;27.80;;;18.15;;
40314;SDS011;26021;45.640;11.302;2023-04-07T06:54:50;39.60;;;18.42;;
40314;SDS011;26021;45.640;11.302;2023-04-07T06:57:15;28.02;;;18.48;;
40314;SDS011;26021;45.640;11.302;2023-04-07T06:59:41;26.17;;;18.67;;
40314;SDS011;26021;45.640;11.302;2023-04-07T07:02:06;24.92;;;17.65;;
40314;SDS011;26021;45.640;11.302;2023-04-07T07:04:33;22.30;;;17.20;;
40314;SDS011;26021;45.640;11.302;2023-04-07T07:06:58;23.08;;;16.42;;
40314;SDS011;26021;45.640;11.302;2023-04-07T07:09:24;22.60;;;17.60;;
40314;SDS011;26021;45.640;11.302;2023-04-07T07:11:51;27.20;;;18.08;;
40314;SDS011;26021;45.640;11.302;2023-04-07T07:14:17;25.70;;;18.83;;
40314;SDS011;26021;45.640;11.302;2023-04-07T07:16:42;24.92;;;18.02;;
40314;SDS011;26021;45.640;11.302;2023-04-07T07:19:07;25.63;;;17.80;;
40314;SDS011;26021;45.640;11.302;2023-04-07T07:21:33;24.55;;;18.33;;
40314;SDS011;26021;45.640;11.302;2023-04-07T07:23:59;29.40;;;19.50;;
40314;SDS011;26021;45.640;11.302;2023-04-07T07:26:25;28.40;;;18.92;;
40314;SDS011;26021;45.640;11.302;2023-04-07T07:28:51;28.15;;;19.42;;
40314;SDS011;26021;45.640;11.302;2023-04-07T07:31:16;29.40;;;18.45;;
40314;SDS011;26021;45.640;11.302;2023-04-07T07:33:42;26.08;;;19.10;;
40314;SDS011;26021;45.640;11.302;2023-04-07T07:36:09;28.45;;;19.92;;
40314;SDS011;26021;45.640;11.302;2023-04-07T07:38:35;28.33;;;19.55;;
40314;SDS011;26021;45.640;11.302;2023-04-07T07:41:01;29.05;;;19.92;;
40314;SDS011;26021;45.640;11.302;2023-04-07T07:43:26;29.25;;;20.17;;
40314;SDS011;26021;45.640;11.302;2023-04-07T07:45:52;28.92;;;20.20;;
40314;SDS011;26021;45.640;11.302;2023-04-07T07:48:17;31.90;;;21.33;;
40314;SDS011;26021;45.640;11.302;2023-04-07T07:50:43;30.98;;;21.38;;
40314;SDS011;26021;45.640;11.302;2023-04-07T07:53:09;29.88;;;20.52;;
40314;SDS011;26021;45.640;11.302;2023-04-07T07:55:34;33.17;;;21.75;;
40314;SDS011;26021;45.640;11.302;2023-04-07T07:58:00;29.55;;;22.30;;
40314;SDS011;26021;45.640;11.302;2023-04-07T08:00:25;29.40;;;21.45;;
40314;SDS011;26021;45.640;11.302;2023-04-07T08:02:51;28.52;;;21.55;;
40314;SDS011;26021;45.640;11.302;2023-04-07T08:05:17;29.38;;;20.83;;
40314;SDS011;26021;45.640;11.302;2023-04-07T08:07:42;28.58;;;20.67;;
40314;SDS011;26021;45.640;11.302;2023-04-07T08:10:08;30.08;;;21.30;;
40314;SDS011;26021;45.640;11.302;2023-04-07T08:12:33;30.30;;;21.70;;
40314;SDS011;26021;45.640;11.302;2023-04-07T08:14:59;30.77;;;22.50;;
40314;SDS011;26021;45.640;11.302;2023-04-07T08:17:24;30.45;;;21.33;;
40314;SDS011;26021;45.640;11.302;2023-04-07T08:19:50;27.52;;;20.23;;
40314;SDS011;26021;45.640;11.302;2023-04-07T08:22:15;26.45;;;21.00;;
40314;SDS011;26021;45.640;11.302;2023-04-07T08:24:43;27.70;;;20.77;;
40314;SDS011;26021;45.640;11.302;2023-04-07T08:27:09;32.47;;;20.95;;
40314;SDS011;26021;45.640;11.302;2023-04-07T08:29:34;30.20;;;23.10;;
40314;SDS011;26021;45.640;11.302;2023-04-07T08:32:00;27.48;;;21.27;;
40314;SDS011;26021;45.640;11.302;2023-04-07T08:34:25;30.23;;;21.08;;
40314;SDS011;26021;45.640;11.302;2023-04-07T08:36:51;32.95;;;21.88;;
40314;SDS011;26021;45.640;11.302;2023-04-07T08:39:16;29.02;;;21.13;;
40314;SDS011;26021;45.640;11.302;2023-04-07T08:41:42;28.08;;;21.00;;
40314;SDS011;26021;45.640;11.302;2023-04-07T08:44:09;28.05;;;20.65;;
40314;SDS011;26021;45.640;11.302;2023-04-07T08:46:37;26.83;;;18.90;;
40314;SDS011;26021;45.640;11.302;2023-04-07T08:49:03;27.85;;;20.50;;
40314;SDS011;26021;45.640;11.302;2023-04-07T08:51:34;26.88;;;19.52;;
40314;SDS011;26021;45.640;11.302;2023-04-07T08:56:41;27.98;;;19.83;;
40314;SDS011;26021;45.640;11.302;2023-04-07T08:59:07;27.15;;;19.35;;
40314;SDS011;26021;45.640;11.302;2023-04-07T09:01:35;29.15;;;19.35;;
40314;SDS011;26021;45.640;11.302;2023-04-07T09:04:03;26.08;;;18.48;;
40314;SDS011;26021;45.640;11.302;2023-04-07T09:06:31;25.00;;;18.05;;
40314;SDS011;26021;45.640;11.302;2023-04-07T09:09:00;29.38;;;18.65;;
40314;SDS011;26021;45.640;11.302;2023-04-07T09:11:26;23.88;;;18.05;;
40314;SDS011;26021;45.640;11.302;2023-04-07T09:13:53;26.88;;;19.13;;
40314;SDS011;26021;45.640;11.302;2023-04-07T09:16:19;28.48;;;19.88;;
40314;SDS011;26021;45.640;11.302;2023-04-07T09:18:44;29.00;;;18.80;;
40314;SDS011;26021;45.640;11.302;2023-04-07T09:21:10;27.33;;;18.33;;
40314;SDS011;26021;45.640;11.302;2023-04-07T09:23:39;28.48;;;19.83;;
40314;SDS011;26021;45.640;11.302;2023-04-07T09:28:54;24.42;;;18.30;;
40314;SDS011;26021;45.640;11.302;2023-04-07T09:31:42;27.95;;;20.02;;
40314;SDS011;26021;45.640;11.302;2023-04-07T09:34:26;28.33;;;20.23;;
40314;SDS011;26021;45.640;11.302;2023-04-07T09:36:53;27.75;;;19.50;;
40314;SDS011;26021;45.640;11.302;2023-04-07T09:39:19;27.38;;;19.80;;
40314;SDS011;26021;45.640;11.302;2023-04-07T09:41:45;29.73;;;20.35;;
40314;SDS011;26021;45.640;11.302;2023-04-07T09:44:11;28.25;;;19.95;;
40314;SDS011;26021;45.640;11.302;2023-04-07T09:49:15;32.70;;;20.40;;
40314;SDS011;26021;45.640;11.302;2023-04-07T09:51:54;44.55;;;21.13;;
40314;SDS011;26021;45.640;11.302;2023-04-07T09:54:34;29.38;;;20.92;;
40314;SDS011;26021;45.640;11.302;2023-04-07T09:57:00;31.17;;;21.35;;
40314;SDS011;26021;45.640;11.302;2023-04-07T09:59:27;29.92;;;21.42;;
40314;SDS011;26021;45.640;11.302;2023-04-07T10:01:54;29.63;;;21.17;;
40314;SDS011;26021;45.640;11.302;2023-04-07T10:04:20;29.73;;;20.73;;
40314;SDS011;26021;45.640;11.302;2023-04-07T10:06:46;28.80;;;20.65;;
40314;SDS011;26021;45.640;11.302;2023-04-07T10:09:12;32.47;;;22.10;;
40314;SDS011;26021;45.640;11.302;2023-04-07T10:11:38;29.98;;;20.98;;
40314;SDS011;26021;45.640;11.302;2023-04-07T10:14:06;31.52;;;21.85;;
40314;SDS011;26021;45.640;11.302;2023-04-07T10:16:33;33.17;;;22.35;;
40314;SDS011;26021;45.640;11.302;2023-04-07T10:19:00;31.25;;;22.15;;
40314;SDS011;26021;45.640;11.302;2023-04-07T10:21:27;30.45;;;21.52;;
40314;SDS011;26021;45.640;11.302;2023-04-07T10:24:04;35.10;;;23.17;;
40314;SDS011;26021;45.640;11.302;2023-04-07T10:26:50;32.03;;;21.45;;
40314;SDS011;26021;45.640;11.302;2023-04-07T10:29:20;33.80;;;22.55;;
40314;SDS011;26021;45.640;11.302;2023-04-07T10:31:48;30.02;;;23.17;;
40314;SDS011;26021;45.640;11.302;2023-04-07T10:34:14;36.15;;;23.30;;
40314;SDS011;26021;45.640;11.302;2023-04-07T10:39:34;31.17;;;22.90;;
40314;SDS011;26021;45.640;11.302;2023-04-07T10:42:01;35.55;;;22.42;;
40314;SDS011;26021;45.640;11.302;2023-04-07T10:44:45;33.88;;;23.33;;
40314;SDS011;26021;45.640;11.302;2023-04-07T10:47:12;33.85;;;22.48;;
40314;SDS011;26021;45.640;11.302;2023-04-07T10:49:38;36.53;;;22.73;;
40314;SDS011;26021;45.640;11.302;2023-04-07T10:54:35;33.83;;;23.25;;
40314;SDS011;26021;45.640;11.302;2023-04-07T10:59:26;35.45;;;23.88;;
40314;SDS011;26021;45.640;11.302;2023-04-07T11:02:28;36.38;;;22.92;;
40314;SDS011;26021;45.640;11.302;2023-04-07T11:04:54;32.20;;;23.27;;
40314;SDS011;26021;45.640;11.302;2023-04-07T11:07:20;36.50;;;25.40;;
40314;SDS011;26021;45.640;11.302;2023-04-07T11:10:10;35.70;;;24.20;;
40314;SDS011;26021;45.640;11.302;2023-04-07T11:12:36;35.13;;;24.67;;
40314;SDS011;26021;45.640;11.302;2023-04-07T11:15:20;35.50;;;23.15;;
40314;SDS011;26021;45.640;11.302;2023-04-07T11:17:46;32.63;;;23.80;;
40314;SDS011;26021;45.640;11.302;2023-04-07T11:23:07;30.17;;;22.15;;
40314;SDS011;26021;45.640;11.302;2023-04-07T11:25:34;32.10;;;23.17;;
40314;SDS011;26021;45.640;11.302;2023-04-07T11:27:59;33.20;;;23.17;;
40314;SDS011;26021;45.640;11.302;2023-04-07T11:30:25;34.03;;;24.75;;
40314;SDS011;26021;45.640;11.302;2023-04-07T11:32:51;33.00;;;23.52;;
40314;SDS011;26021;45.640;11.302;2023-04-07T11:35:17;33.03;;;24.00;;
40314;SDS011;26021;45.640;11.302;2023-04-07T11:37:42;34.28;;;24.13;;
40314;SDS011;26021;45.640;11.302;2023-04-07T11:40:08;34.45;;;24.23;;
40314;SDS011;26021;45.640;11.302;2023-04-07T11:42:35;35.92;;;24.42;;
40314;SDS011;26021;45.640;11.302;2023-04-07T11:45:04;33.90;;;24.30;;
40314;SDS011;26021;45.640;11.302;2023-04-07T11:47:37;38.58;;;26.42;;
40314;SDS011;26021;45.640;11.302;2023-04-07T11:50:04;34.38;;;24.38;;
40314;SDS011;26021;45.640;11.302;2023-04-07T11:52:42;39.38;;;25.15;;
40314;SDS011;26021;45.640;11.302;2023-04-07T11:57:45;37.83;;;24.33;;
40314;SDS011;26021;45.640;11.302;2023-04-07T12:00:11;34.63;;;24.52;;
40314;SDS011;26021;45.640;11.302;2023-04-07T12:02:38;32.97;;;24.83;;
40314;SDS011;26021;45.640;11.302;2023-04-07T12:05:04;42.55;;;26.88;;
40314;SDS011;26021;45.640;11.302;2023-04-07T12:07:30;34.42;;;23.92;;
40314;SDS011;26021;45.640;11.302;2023-04-07T12:09:56;35.80;;;23.60;;
40314;SDS011;26021;45.640;11.302;2023-04-07T12:12:28;36.63;;;23.30;;
40314;SDS011;26021;45.640;11.302;2023-04-07T12:14:54;30.13;;;22.33;;
40314;SDS011;26021;45.640;11.302;2023-04-07T12:17:21;34.50;;;23.33;;
40314;SDS011;26021;45.640;11.302;2023-04-07T12:19:51;31.17;;;21.77;;
40314;SDS011;26021;45.640;11.302;2023-04-07T12:22:17;33.92;;;21.90;;
40314;SDS011;26021;45.640;11.302;2023-04-07T12:24:43;35.85;;;22.02;;
40314;SDS011;26021;45.640;11.302;2023-04-07T12:27:08;29.30;;;21.00;;
40314;SDS011;26021;45.640;11.302;2023-04-07T12:29:35;29.77;;;21.38;;
40314;SDS011;26021;45.640;11.302;2023-04-07T12:32:01;30.38;;;22.67;;
40314;SDS011;26021;45.640;11.302;2023-04-07T12:34:28;29.17;;;22.00;;
40314;SDS011;26021;45.640;11.302;2023-04-07T12:36:53;30.58;;;21.48;;
40314;SDS011;26021;45.640;11.302;2023-04-07T12:39:18;28.88;;;21.55;;
40314;SDS011;26021;45.640;11.302;2023-04-07T12:41:44;37.83;;;22.75;;
40314;SDS011;26021;45.640;11.302;2023-04-07T12:44:11;31.95;;;22.48;;
40314;SDS011;26021;45.640;11.302;2023-04-07T12:46:37;30.48;;;22.10;;
40314;SDS011;26021;45.640;11.302;2023-04-07T12:49:02;31.63;;;22.27;;
40314;SDS011;26021;45.640;11.302;2023-04-07T12:51:27;35.03;;;22.20;;
40314;SDS011;26021;45.640;11.302;2023-04-07T12:53:53;32.25;;;21.55;;
40314;SDS011;26021;45.640;11.302;2023-04-07T12:56:19;32.53;;;22.00;;
40314;SDS011;26021;45.640;11.302;2023-04-07T12:58:46;32.60;;;21.30;;
40314;SDS011;26021;45.640;11.302;2023-04-07T13:01:12;32.10;;;21.23;;
40314;SDS011;26021;45.640;11.302;2023-04-07T13:03:38;30.00;;;21.33;;
40314;SDS011;26021;45.640;11.302;2023-04-07T13:06:04;31.45;;;21.75;;
40314;SDS011;26021;45.640;11.302;2023-04-07T13:08:30;28.42;;;21.35;;
40314;SDS011;26021;45.640;11.302;2023-04-07T13:10:55;29.75;;;21.67;;
40314;SDS011;26021;45.640;11.302;2023-04-07T13:13:21;28.88;;;22.45;;
40314;SDS011;26021;45.640;11.302;2023-04-07T13:15:47;28.23;;;21.80;;
40314;SDS011;26021;45.640;11.302;2023-04-07T13:18:13;33.88;;;22.02;;
40314;SDS011;26021;45.640;11.302;2023-04-07T13:20:38;30.20;;;22.23;;
40314;SDS011;26021;45.640;11.302;2023-04-07T13:23:04;32.15;;;21.88;;
40314;SDS011;26021;45.640;11.302;2023-04-07T13:25:30;34.28;;;23.77;;
40314;SDS011;26021;45.640;11.302;2023-04-07T13:27:55;31.00;;;23.15;;
40314;SDS011;26021;45.640;11.302;2023-04-07T13:30:21;31.90;;;22.55;;
40314;SDS011;26021;45.640;11.302;2023-04-07T13:32:46;30.98;;;23.02;;
40314;SDS011;26021;45.640;11.302;2023-04-07T13:35:14;31.35;;;22.02;;
40314;SDS011;26021;45.640;11.302;2023-04-07T13:37:41;35.25;;;23.45;;
40314;SDS011;26021;45.640;11.302;2023-04-07T13:40:07;32.75;;;23.38;;
40314;SDS011;26021;45.640;11.302;2023-04-07T13:42:33;32.58;;;22.52;;
40314;SDS011;26021;45.640;11.302;2023-04-07T13:44:58;31.88;;;22.65;;
40314;SDS011;26021;45.640;11.302;2023-04-07T13:47:23;33.75;;;22.67;;
40314;SDS011;26021;45.640;11.302;2023-04-07T13:49:49;31.77;;;22.40;;
40314;SDS011;26021;45.640;11.302;2023-04-07T13:52:16;31.67;;;22.35;;
40314;SDS011;26021;45.640;11.302;2023-04-07T13:54:42;29.58;;;22.30;;
40314;SDS011;26021;45.640;11.302;2023-04-07T13:57:08;34.38;;;22.75;;
40314;SDS011;26021;45.640;11.302;2023-04-07T13:59:33;30.23;;;22.85;;
40314;SDS011;26021;45.640;11.302;2023-04-07T14:01:59;32.15;;;23.15;;
40314;SDS011;26021;45.640;11.302;2023-04-07T14:04:25;35.00;;;24.80;;
40314;SDS011;26021;45.640;11.302;2023-04-07T14:06:51;32.92;;;23.02;;
40314;SDS011;26021;45.640;11.302;2023-04-07T14:09:17;31.95;;;24.05;;
40314;SDS011;26021;45.640;11.302;2023-04-07T14:11:42;31.52;;;23.25;;
40314;SDS011;26021;45.640;11.302;2023-04-07T14:14:08;35.53;;;23.80;;
40314;SDS011;26021;45.640;11.302;2023-04-07T14:16:33;32.83;;;21.77;;
40314;SDS011;26021;45.640;11.302;2023-04-07T14:18:58;31.70;;;23.85;;
40314;SDS011;26021;45.640;11.302;2023-04-07T14:21:24;33.45;;;23.85;;
40314;SDS011;26021;45.640;11.302;2023-04-07T14:23:51;35.38;;;23.30;;
40314;SDS011;26021;45.640;11.302;2023-04-07T14:26:17;30.77;;;23.00;;
40314;SDS011;26021;45.640;11.302;2023-04-07T14:28:42;33.22;;;23.10;;
40314;SDS011;26021;45.640;11.302;2023-04-07T14:31:11;34.47;;;25.27;;
40314;SDS011;26021;45.640;11.302;2023-04-07T14:33:38;33.45;;;23.45;;
40314;SDS011;26021;45.640;11.302;2023-04-07T14:36:04;35.72;;;24.42;;
40314;SDS011;26021;45.640;11.302;2023-04-07T14:38:29;36.58;;;24.73;;
40314;SDS011;26021;45.640;11.302;2023-04-07T14:40:55;33.25;;;23.23;;
40314;SDS011;26021;45.640;11.302;2023-04-07T14:43:20;31.95;;;23.17;;